Time;durP1;ratioP1;P1;durP2;ratioP2;P2;SDS_P1;SDS_P2;PMS_P1;PMS_P2;Temp;Humidity;BMP_temperature;BMP_pressure;BME280_temperature;BME280_humidity;BME280_pressure;Samples;Min_cycle;Max_cycle;Signal;HPM_P1;HPM_P2
2023/09/04 00:58:58;;;;;;;1999.90;999.90;;;;;;;13.67;100.00;102696.31;10439304;28;20056;-71
2023/09/04 01:04:00;;;;;;;1999.90;999.90;;;;;;;13.60;100.00;102694.00;10443735;28;20053;-71
2023/09/04 01:09:04;;;;;;;1999.90;999.90;;;;;;;13.53;100.00;102690.75;10460616;28;20409;-71
2023/09/04 01:14:14;;;;;;;1999.90;999.90;;;;;;;13.62;100.00;102690.41;10460477;28;20462;-71
2023/09/04 01:19:18;;;;;;;1999.90;999.90;;;;;;;13.64;100.00;102685.06;10443355;28;20132;-71
2023/09/04 01:24:20;;;;;;;1999.90;999.90;;;;;;;13.57;100.00;102687.09;10460676;28;20063;-71
2023/09/04 01:29:30;;;;;;;1999.90;999.90;;;;;;;13.45;100.00;102684.94;10459914;28;20071;-70
2023/09/04 01:34:42;;;;;;;1999.90;999.90;;;;;;;13.37;100.00;102683.47;10442256;28;20047;-71
2023/09/04 01:39:44;;;;;;;;;;;;;;;13.54;100.00;102693.31;10442393;28;20048;-70
2023/09/04 01:44:46;;;;;;;1999.90;999.90;;;;;;;13.57;100.00;102695.84;10442192;28;19920;-71
2023/09/04 01:49:49;;;;;;;1999.90;999.90;;;;;;;13.35;100.00;102681.81;10459135;28;20538;-70
2023/09/04 01:54:51;;;;;;;1999.90;999.90;;;;;;;13.37;100.00;102687.88;10459520;28;20049;-70
2023/09/04 01:59:53;;;;;;;1999.90;999.90;;;;;;;13.42;100.00;102691.19;10458917;28;20060;-70
2023/09/04 02:04:56;;;;;;;1999.90;999.90;;;;;;;13.31;100.00;102686.28;10458474;28;20504;-70
2023/09/04 02:09:58;;;;;;;1999.90;999.90;;;;;;;13.21;100.00;102682.31;10459027;28;20064;-70
2023/09/04 02:15:00;;;;;;;1999.90;999.90;;;;;;;13.23;100.00;102683.13;10458125;28;20053;-70
2023/09/04 02:20:04;;;;;;;1999.90;999.90;;;;;;;13.06;100.00;102683.75;10458548;28;20060;-71
2023/09/04 02:25:07;;;;;;;1999.90;999.90;;;;;;;13.16;100.00;102682.50;10457838;28;20124;-70
2023/09/04 02:30:10;;;;;;;1999.90;999.90;;;;;;;13.11;100.00;102679.19;10439972;28;20412;-70
2023/09/04 02:35:12;;;;;;;1999.90;999.90;;;;;;;13.29;100.00;102687.28;10423525;28;20470;-70
2023/09/04 02:40:14;;;;;;;1999.90;999.90;;;;;;;13.17;100.00;102671.03;10457823;28;20127;-70
2023/09/04 02:45:17;;;;;;;1999.90;999.90;;;;;;;12.84;100.00;102673.19;10440088;28;20044;-70
2023/09/04 02:50:19;;;;;;;1999.90;999.90;;;;;;;12.97;100.00;102666.53;10439890;28;20083;-70
2023/09/04 02:55:21;;;;;;;1999.90;999.90;;;;;;;12.95;100.00;102664.91;10456633;28;20170;-70
2023/09/04 03:00:24;;;;;;;1999.90;999.90;;;;;;;12.94;100.00;102664.03;10456725;28;20137;-70
2023/09/04 03:05:27;;;;;;;1999.90;999.90;;;;;;;12.98;100.00;102657.75;10439309;28;20049;-70
2023/09/04 03:10:31;;;;;;;1999.90;999.90;;;;;;;12.92;100.00;102654.50;10456945;28;20110;-70
2023/09/04 03:15:33;;;;;;;1999.90;999.90;;;;;;;12.99;100.00;102648.09;10456799;28;20133;-70
2023/09/04 03:20:36;;;;;;;1999.90;999.90;;;;;;;12.91;100.00;102643.13;10438414;28;20409;-70
2023/09/04 03:25:39;;;;;;;1999.90;999.90;;;;;;;13.06;100.00;102639.03;10438885;28;20048;-70
2023/09/04 03:30:41;;;;;;;1999.90;999.90;;;;;;;13.08;100.00;102638.97;10456463;28;20056;-70
2023/09/04 03:35:44;;;;;;;1999.90;999.90;;;;;;;12.93;100.00;102640.44;10458315;28;20120;-70
2023/09/04 03:40:46;;;;;;;1999.90;999.90;;;;;;;12.80;100.00;102645.31;10464132;28;20045;-70
2023/09/04 03:45:49;;;;;;;1999.90;999.90;;;;;;;12.92;100.00;102643.97;10446984;28;20041;-70
2023/09/04 03:50:51;;;;;;;1999.90;999.90;;;;;;;12.84;100.00;102639.00;10464470;28;20049;-70
2023/09/04 03:56:01;;;;;;;1999.90;999.90;;;;;;;12.81;100.00;102647.03;10464296;28;20051;-70
2023/09/04 04:01:06;;;;;;;1999.90;999.90;;;;;;;12.64;100.00;102631.84;10445614;28;20493;-70
2023/09/04 04:06:12;;;;;;;1999.90;999.90;;;;;;;12.51;100.00;102639.34;10445974;28;20507;-70
2023/09/04 04:11:15;;;;;;;1999.90;999.90;;;;;;;12.50;100.00;102629.75;10446067;28;20578;-70
2023/09/04 04:16:17;;;;;;;1999.90;999.90;;;;;;;12.54;100.00;102627.84;10463530;28;20075;-70
2023/09/04 04:21:20;;;;;;;1999.90;999.90;;;;;;;12.48;100.00;102634.19;10463280;28;20049;-70
2023/09/04 04:26:22;;;;;;;1999.90;999.90;;;;;;;12.51;100.00;102628.84;10463043;28;20052;-70
2023/09/04 04:31:25;;;;;;;1999.90;999.90;;;;;;;12.45;100.00;102629.06;10462241;28;20045;-70
2023/09/04 04:36:27;;;;;;;1999.90;999.90;;;;;;;12.48;100.00;102628.09;10462713;28;20128;-70
2023/09/04 04:41:31;;;;;;;1999.90;999.90;;;;;;;12.57;100.00;102627.75;10462549;28;20060;-70
2023/09/04 04:46:33;;;;;;;1999.90;999.90;;;;;;;12.51;100.00;102634.09;10444249;28;20045;-70
2023/09/04 04:51:35;;;;;;;1999.90;999.90;;;;;;;12.60;100.00;102627.66;10462304;28;20061;-70
2023/09/04 04:56:39;;;;;;;1999.90;999.90;;;;;;;12.54;100.00;102638.38;10444260;28;20075;-70
2023/09/04 05:01:42;;;;;;;1999.90;999.90;;;;;;;12.68;100.00;102630.00;10443193;28;20421;-70
2023/09/04 05:06:46;;;;;;;1999.90;999.90;;;;;;;12.67;100.00;102625.66;10443289;28;20047;-70
2023/09/04 05:11:48;;;;;;;1999.90;999.90;;;;;;;12.73;100.00;102622.81;10461351;28;20053;-70
2023/09/04 05:16:50;;;;;;;1999.90;999.90;;;;;;;12.89;100.00;102629.16;10460521;28;20414;-70
2023/09/04 05:21:53;;;;;;;1999.90;999.90;;;;;;;12.93;100.00;102629.94;10469502;28;20075;-70
2023/09/04 05:26:58;;;;;;;1999.90;999.90;;;;;;;13.10;100.00;102621.41;10468841;28;20049;-70
2023/09/04 05:32:01;;;;;;;1999.90;999.90;;;;;;;13.17;100.00;102621.06;10442936;28;20059;-70
2023/09/04 05:37:03;;;;;;;1999.90;999.90;;;;;;;13.10;100.00;102614.34;10460366;28;20129;-70
2023/09/04 05:42:06;;;;;;;1999.90;999.90;;;;;;;13.34;100.00;102617.81;10459560;28;20486;-70
2023/09/04 05:47:08;;;;;;;1999.90;999.90;;;;;;;13.37;100.00;102620.31;10425885;28;20044;-70
2023/09/04 05:52:10;;;;;;;1999.90;999.90;;;;;;;13.51;100.00;102617.13;10459874;28;20140;-72
2023/09/04 05:57:13;;;;;;;1999.90;999.90;;;;;;;13.55;100.00;102602.09;10441585;28;20128;-72
2023/09/04 06:02:15;;;;;;;1999.90;999.90;;;;;;;13.68;100.00;102607.69;10458171;28;20057;-72
2023/09/04 06:07:18;;;;;;;1999.90;999.90;;;;;;;13.75;100.00;102604.75;10458995;28;20136;-71
2023/09/04 06:12:21;;;;;;;1999.90;999.90;;;;;;;13.96;100.00;102614.44;10441283;28;20098;-72
2023/09/04 06:17:23;;;;;;;1999.90;999.90;;;;;;;14.04;100.00;102621.06;10441034;28;20049;-71
2023/09/04 06:22:25;;;;;;;1999.90;999.90;;;;;;;14.34;100.00;102615.41;10458524;28;20052;-72
2023/09/04 06:27:28;;;;;;;1999.90;999.90;;;;;;;14.23;100.00;102613.22;10458300;28;20049;-72
2023/09/04 06:32:30;;;;;;;1999.90;999.90;;;;;;;14.41;100.00;102610.72;10491513;28;20497;-72
2023/09/04 06:37:32;;;;;;;1999.90;999.90;;;;;;;14.47;100.00;102606.03;10539430;28;20044;-72
2023/09/04 06:42:35;;;;;;;1999.90;999.90;;;;;;;14.50;100.00;102605.84;10539890;28;20052;-72
2023/09/04 06:47:38;;;;;;;1999.90;999.90;;;;;;;14.91;100.00;102610.22;10547146;22;20504;-72
2023/09/04 06:52:40;;;;;;;1999.90;999.90;;;;;;;15.20;100.00;102607.97;10505880;28;20455;-72
2023/09/04 06:57:43;;;;;;;1999.90;999.90;;;;;;;15.40;100.00;102607.00;10522707;28;20072;-72
2023/09/04 07:02:45;;;;;;;1999.90;999.90;;;;;;;15.42;100.00;102611.25;10540493;28;20055;-72
2023/09/04 07:07:48;;;;;;;1999.90;999.90;;;;;;;15.84;100.00;102603.94;10539635;28;20498;-72
2023/09/04 07:12:53;;;;;;;1999.90;999.90;;;;;;;16.13;100.00;102599.78;10540192;28;20056;-72
2023/09/04 07:17:59;;;;;;;1999.90;999.90;;;;;;;16.35;100.00;102606.59;10521648;28;20400;-72
2023/09/04 07:23:01;;;;;;;1999.90;999.90;;;;;;;16.55;100.00;102599.38;10522269;28;20059;-72
2023/09/04 07:28:20;;;;;;;1999.90;999.90;;;;;;;17.12;100.00;102606.88;10509410;28;20052;-72
2023/09/04 07:33:22;;;;;;;1999.90;999.90;;;;;;;17.87;100.00;102612.25;10539827;28;20062;-72
2023/09/04 07:38:25;;;;;;;1999.90;999.90;;;;;;;18.73;100.00;102613.16;10539694;28;20044;-72
2023/09/04 07:43:29;;;;;;;1999.90;999.90;;;;;;;19.13;96.36;102607.09;10521756;28;20054;-72
2023/09/04 07:48:33;;;;;;;1999.90;999.90;;;;;;;19.62;96.26;102609.16;10538618;28;20605;-72
2023/09/04 07:53:36;;;;;;;1999.90;999.90;;;;;;;19.72;90.68;102597.91;10538747;28;20048;-72
2023/09/04 07:58:39;;;;;;;1999.90;999.90;;;;;;;19.54;91.31;102603.53;10539361;28;20123;-72
2023/09/04 08:03:42;;;;;;;1999.90;999.90;;;;;;;19.53;90.00;102603.63;10539159;28;20056;-72
2023/09/04 08:08:44;;;;;;;1999.90;999.90;;;;;;;19.94;90.58;102592.88;10538393;28;20447;-72
2023/09/04 08:13:47;;;;;;;1999.90;999.90;;;;;;;20.52;89.30;102582.59;10539019;28;20055;-72
2023/09/04 08:18:49;;;;;;;1999.90;999.90;;;;;;;21.00;86.39;102588.97;10538925;28;20075;-73
2023/09/04 08:23:51;;;;;;;1999.90;999.90;;;;;;;21.14;85.19;102581.66;10525225;28;20510;-72
2023/09/04 08:28:54;;;;;;;1999.90;999.90;;;;;;;21.30;83.78;102580.50;10528351;28;20048;-72
2023/09/04 08:33:56;;;;;;;1999.90;999.90;;;;;;;21.43;77.67;102572.47;10528281;28;20048;-72
2023/09/04 08:38:58;;;;;;;1999.90;999.90;;;;;;;21.28;75.91;102575.31;10546072;28;20058;-72
2023/09/04 08:44:04;;;;;;;1999.90;999.90;;;;;;;21.58;75.35;102568.66;10528312;28;20044;-72
2023/09/04 08:49:07;;;;;;;1999.90;999.90;;;;;;;22.71;75.72;102567.84;10526970;28;20047;-72
2023/09/04 08:54:10;;;;;;;1999.90;999.90;;;;;;;23.18;76.39;102563.13;10544788;28;20496;-72
2023/09/04 08:59:12;;;;;;;1999.90;999.90;;;;;;;23.22;75.08;102553.88;10527278;28;20054;-73
2023/09/04 09:04:16;;;;;;;1999.90;999.90;;;;;;;23.69;72.59;102551.66;10544413;28;20381;-72
2023/09/04 09:09:21;;;;;;;1999.90;999.90;;;;;;;23.27;73.68;102542.81;10526814;28;20056;-73
2023/09/04 09:14:29;;;;;;;1999.90;999.90;;;;;;;24.94;67.62;102538.00;10544637;28;20047;-73
2023/09/04 09:19:35;;;;;;;1999.90;999.90;;;;;;;23.76;68.31;102537.78;10526258;28;20047;-70
2023/09/04 09:24:59;;;;;;;1999.90;999.90;;;;;;;25.44;66.97;102544.22;10544252;28;20052;-72
2023/09/04 09:30:02;;;;;;;1999.90;999.90;;;;;;;26.57;65.06;102537.00;10525391;28;20527;-71
2023/09/04 09:35:05;;;;;;;1999.90;999.90;;;;;;;25.33;62.05;102539.84;10507425;28;20389;-71
2023/09/04 09:40:09;;;;;;;1999.90;999.90;;;;;;;25.85;60.41;102534.91;10543548;28;20070;-72
2023/09/04 09:45:13;;;;;;;1999.90;999.90;;;;;;;26.42;59.77;102542.03;10542475;28;20113;-72
2023/09/04 09:50:16;;;;;;;1999.90;999.90;;;;;;;27.71;59.50;102536.31;10543079;28;20050;-72
2023/09/04 09:55:25;;;;;;;1999.90;999.90;;;;;;;28.25;58.40;102514.53;10524943;28;20127;-72
2023/09/04 10:00:28;;;;;;;1999.90;999.90;;;;;;;28.71;56.95;102520.34;10524743;28;20058;-72
2023/09/04 10:05:31;;;;;;;1999.90;999.90;;;;;;;28.33;56.46;102520.75;10523939;28;20074;-72
2023/09/04 10:10:37;;;;;;;1999.90;999.90;;;;;;;28.48;54.98;102517.41;10541696;28;20405;-72
2023/09/04 10:15:42;;;;;;;1999.90;999.90;;;;;;;28.71;54.20;102514.97;10524198;28;20075;-72
2023/09/04 10:20:45;;;;;;;1999.90;999.90;;;;;;;28.00;55.19;102506.34;10523427;28;20097;-72
2023/09/04 10:26:10;;;;;;;1999.90;999.90;;;;;;;27.78;50.18;102492.44;10522977;28;20416;-72
2023/09/04 10:31:13;;;;;;;1999.90;999.90;;;;;;;27.94;53.56;102489.00;10523742;28;20080;-71
2023/09/04 10:36:16;;;;;;;1999.90;999.90;;;;;;;30.77;50.66;102503.56;10523498;28;20048;-72
2023/09/04 10:41:18;;;;;;;1999.90;999.90;;;;;;;29.55;49.50;102496.72;10540639;28;20404;-73
2023/09/04 10:46:22;;;;;;;1999.90;999.90;;;;;;;29.04;49.00;102498.81;10522222;28;20052;-72
2023/09/04 10:51:27;;;;;;;1999.90;999.90;;;;;;;30.74;48.32;102488.53;10540835;28;20052;-72
2023/09/04 10:56:54;;;;;;;1999.90;999.90;;;;;;;31.58;46.85;102484.91;10522850;28;20050;-72
2023/09/04 11:01:56;;;;;;;1999.90;999.90;;;;;;;29.06;49.84;102478.75;10522065;28;20127;-73
2023/09/04 11:07:21;;;;;;;1999.90;999.90;;;;;;;30.60;46.98;102462.28;10522352;28;20055;-72
2023/09/04 11:12:24;;;;;;;1999.90;999.90;;;;;;;31.34;44.37;102457.06;10540293;28;20056;-73
2023/09/04 11:17:33;;;;;;;1999.90;999.90;;;;;;;30.79;45.29;102447.44;10521569;28;20127;-73
2023/09/04 11:22:35;;;;;;;1999.90;999.90;;;;;;;29.71;47.13;102451.81;10539513;28;20134;-73
2023/09/04 11:27:37;;;;;;;1999.90;999.90;;;;;;;31.16;45.54;102443.88;10539862;28;20132;-73
2023/09/04 11:32:40;;;;;;;1999.90;999.90;;;;;;;30.05;46.88;102437.16;10539780;28;20059;-73
2023/09/04 11:37:43;;;;;;;1999.90;999.90;;;;;;;31.06;44.91;102427.94;10521175;28;20507;-73
2023/09/04 11:42:46;;;;;;;1999.90;999.90;;;;;;;30.81;43.84;102426.47;10521744;28;20131;-74
2023/09/04 11:47:50;;;;;;;1999.90;999.90;;;;;;;29.25;47.61;102425.47;10538798;28;20098;-73
2023/09/04 11:52:53;;;;;;;1999.90;999.90;;;;;;;30.04;48.54;102424.66;10521125;28;20512;-73
2023/09/04 11:57:55;;;;;;;1999.90;999.90;;;;;;;28.95;46.84;102425.19;10542479;28;20133;-74
2023/09/04 12:02:58;;;;;;;1999.90;999.90;;;;;;;29.94;44.65;102420.34;10546825;28;20055;-73
2023/09/04 12:08:01;;;;;;;1999.90;999.90;;;;;;;28.87;48.24;102420.63;10547232;28;20041;-74
2023/09/04 12:13:04;;;;;;;1999.90;999.90;;;;;;;30.33;45.76;102414.00;10528503;28;20052;-74
2023/09/04 12:18:10;;;;;;;1999.90;999.90;;;;;;;30.68;47.36;102403.63;10529148;28;20044;-73
2023/09/04 12:23:13;;;;;;;1999.90;999.90;;;;;;;31.01;45.76;102397.91;10546072;28;20055;-74
2023/09/04 12:28:16;;;;;;;1999.90;999.90;;;;;;;30.62;46.82;102395.41;10545776;28;20590;-74
2023/09/04 12:33:18;;;;;;;1999.90;999.90;;;;;;;32.15;45.80;102389.34;10528313;28;20044;-73
2023/09/04 12:38:21;;;;;;;1999.90;999.90;;;;;;;30.38;46.14;102394.59;10546107;28;20054;-74
2023/09/04 12:43:24;;;;;;;1999.90;999.90;;;;;;;30.95;46.09;102373.47;10546049;28;20126;-74
2023/09/04 12:48:26;;;;;;;1999.90;999.90;;;;;;;30.14;44.98;102377.53;10544845;28;20491;-74
2023/09/04 12:53:28;;;;;;;1999.90;999.90;;;;;;;30.97;45.69;102372.25;10545461;28;20047;-74
2023/09/04 12:58:32;;;;;;;1999.90;999.90;;;;;;;30.32;43.93;102373.66;10545323;28;20044;-74
2023/09/04 13:03:34;;;;;;;1999.90;999.90;;;;;;;31.11;44.96;102367.88;10526515;28;20051;-74
2023/09/04 13:08:37;;;;;;;1999.90;999.90;;;;;;;30.73;46.13;102368.75;10525966;28;20477;-73
2023/09/04 13:13:41;;;;;;;1999.90;999.90;;;;;;;31.07;44.84;102351.19;10544034;28;20599;-74
2023/09/04 13:18:44;;;;;;;1999.90;999.90;;;;;;;31.00;45.25;102346.69;10543722;28;20040;-74
2023/09/04 13:23:47;;;;;;;1999.90;999.90;;;;;;;31.34;46.75;102334.44;10526483;28;20048;-74
2023/09/04 13:28:49;;;;;;;1999.90;999.90;;;;;;;30.89;45.14;102323.66;10543331;28;20481;-74
2023/09/04 13:33:52;;;;;;;1999.90;999.90;;;;;;;30.28;47.70;102329.09;10543154;28;20139;-73
2023/09/04 13:38:54;;;;;;;1999.90;999.90;;;;;;;29.14;45.18;102324.19;10543614;28;20075;-74
2023/09/04 13:43:56;;;;;;;1999.90;999.90;;;;;;;29.57;46.35;102311.22;10525440;28;20128;-73
2023/09/04 13:48:59;;;;;;;1999.90;999.90;;;;;;;29.80;46.99;102295.06;10524637;28;20048;-73
2023/09/04 13:54:01;;;;;;;1999.90;999.90;;;;;;;29.26;46.08;102303.09;10542968;28;20048;-74
2023/09/04 13:59:04;;;;;;;1999.90;999.90;;;;;;;29.20;48.73;102301.97;10542781;28;20044;-73
2023/09/04 14:04:07;;;;;;;1999.90;999.90;;;;;;;30.74;45.68;102291.19;10524717;28;20066;-73
2023/09/04 14:09:09;;;;;;;1999.90;999.90;;;;;;;29.24;46.48;102297.06;10523941;28;20055;-73
2023/09/04 14:14:15;;;;;;;1999.90;999.90;;;;;;;28.04;49.46;102297.75;10524627;28;20078;-74
2023/09/04 14:19:18;;;;;;;1999.90;999.90;;;;;;;29.67;46.88;102283.97;10541429;28;20040;-74
2023/09/04 14:24:20;;;;;;;1999.90;999.90;;;;;;;30.44;46.76;102279.53;10541257;28;20596;-73
2023/09/04 14:29:23;;;;;;;1999.90;999.90;;;;;;;30.80;45.39;102282.34;10541599;28;20051;-73
2023/09/04 14:34:25;;;;;;;1999.90;999.90;;;;;;;32.12;47.32;102280.53;10541528;28;20055;-73
2023/09/04 14:39:28;;;;;;;1999.90;999.90;;;;;;;31.88;46.45;102282.59;10540748;28;20083;-73
2023/09/04 14:44:30;;;;;;;1999.90;999.90;;;;;;;31.02;46.45;102269.78;10523297;28;20109;-73
2023/09/04 14:49:33;;;;;;;1999.90;999.90;;;;;;;30.72;48.19;102277.03;10540120;28;20080;-74
2023/09/04 14:54:35;;;;;;;1999.90;999.90;;;;;;;30.90;46.46;102272.09;10540405;28;20476;-73
2023/09/04 14:59:37;;;;;;;1999.90;999.90;;;;;;;30.41;51.21;102267.22;10522156;28;20456;-73
2023/09/04 15:04:43;;;;;;;1999.90;999.90;;;;;;;29.70;50.55;102259.34;10540501;28;20071;-73
2023/09/04 15:09:46;;;;;;;1999.90;999.90;;;;;;;30.08;49.72;102251.31;10539729;28;20044;-74
2023/09/04 15:14:48;;;;;;;1999.90;999.90;;;;;;;29.74;49.78;102241.78;10540305;28;20056;-73
2023/09/04 15:19:51;;;;;;;1999.90;999.90;;;;;;;30.22;50.34;102240.72;10540121;28;20054;-73
2023/09/04 15:24:55;;;;;;;1999.90;999.90;;;;;;;28.97;53.82;102236.31;10540026;28;20055;-73
2023/09/04 15:29:57;;;;;;;1999.90;999.90;;;;;;;28.07;53.62;102246.25;10540460;28;20048;-73
2023/09/04 15:35:00;;;;;;;1999.90;999.90;;;;;;;28.45;54.05;102227.69;10530784;28;20062;-73
2023/09/04 15:40:04;;;;;;;1999.90;999.90;;;;;;;27.04;56.35;102223.16;10547885;28;20047;-73
2023/09/04 15:45:11;;;;;;;1999.90;999.90;;;;;;;27.24;59.13;102220.22;10547548;28;20512;-73
2023/09/04 15:50:13;;;;;;;1999.90;999.90;;;;;;;27.53;58.99;102218.94;10547209;28;20090;-72
2023/09/04 15:55:15;;;;;;;1999.90;999.90;;;;;;;26.45;58.78;102203.41;10547207;28;20047;-72
2023/09/04 16:00:18;;;;;;;1999.90;999.90;;;;;;;27.46;57.57;102204.50;10547641;28;20051;-72
2023/09/04 16:05:20;;;;;;;1999.90;999.90;;;;;;;26.60;59.31;102203.66;10546834;28;20163;-72
2023/09/04 16:10:23;;;;;;;1999.90;999.90;;;;;;;26.80;61.24;102193.53;10546632;28;20074;-72
2023/09/04 16:15:26;;;;;;;1999.90;999.90;;;;;;;25.88;64.71;102198.44;10546390;28;20408;-73
2023/09/04 16:20:28;;;;;;;1999.90;999.90;;;;;;;25.59;66.14;102192.31;10547036;28;20048;-72
2023/09/04 16:25:30;;;;;;;1999.90;999.90;;;;;;;25.59;68.18;102186.13;10546734;28;20051;-73
2023/09/04 16:30:33;;;;;;;1999.90;999.90;;;;;;;25.02;71.67;102184.47;10545696;28;20396;-72
2023/09/04 16:35:36;;;;;;;1999.90;999.90;;;;;;;25.15;71.18;102180.59;10528393;28;20043;-72
2023/09/04 16:40:42;;;;;;;1999.90;999.90;;;;;;;24.50;74.19;102173.41;10546231;28;20044;-72
2023/09/04 16:45:46;;;;;;;1999.90;999.90;;;;;;;24.35;75.02;102182.91;10527085;28;20058;-72
2023/09/04 16:50:49;;;;;;;1999.90;999.90;;;;;;;24.17;76.01;102175.63;10527009;28;20507;-72
2023/09/04 16:55:52;;;;;;;1999.90;999.90;;;;;;;23.84;79.77;102174.25;10545377;28;20059;-72
2023/09/04 17:00:54;;;;;;;1999.90;999.90;;;;;;;23.70;79.58;102170.16;10510217;28;20127;-72
2023/09/04 17:05:57;;;;;;;1999.90;999.90;;;;;;;23.54;80.98;102176.91;10502416;28;20048;-73
2023/09/04 17:10:59;;;;;;;1999.90;999.90;;;;;;;22.83;87.75;102187.72;10502911;28;20052;-72
2023/09/04 17:16:01;;;;;;;1999.90;999.90;;;;;;;22.92;87.23;102170.03;10484939;28;20147;-72
2023/09/04 17:21:04;;;;;;;1999.90;999.90;;;;;;;22.59;84.97;102166.66;10502571;28;20072;-73
2023/09/04 17:26:06;;;;;;;1999.90;999.90;;;;;;;22.48;89.68;102164.94;10502298;28;20057;-73
2023/09/04 17:31:08;;;;;;;1999.90;999.90;;;;;;;22.42;90.37;102158.28;10502171;28;20076;-73
2023/09/04 17:36:11;;;;;;;1999.90;999.90;;;;;;;22.24;91.86;102155.38;10519155;28;20070;-72
2023/09/04 17:41:13;;;;;;;1999.90;999.90;;;;;;;22.00;93.08;102152.13;10542874;28;20537;-72
2023/09/04 17:46:16;;;;;;;1999.90;999.90;;;;;;;21.96;90.73;102143.53;10542399;28;20493;-72
2023/09/04 17:51:18;;;;;;;1999.90;999.90;;;;;;;21.85;92.07;102140.94;10542381;28;20055;-73
2023/09/04 17:56:21;;;;;;;1999.90;999.90;;;;;;;21.70;93.53;102149.25;10542006;28;20054;-72
2023/09/04 18:01:23;;;;;;;1999.90;999.90;;;;;;;21.30;96.98;102159.66;10542933;28;20050;-72
2023/09/04 18:06:26;;;;;;;1999.90;999.90;;;;;;;21.18;98.29;102158.81;10542698;28;20123;-72
2023/09/04 18:11:28;;;;;;;1999.90;999.90;;;;;;;20.92;99.24;102159.13;10542338;28;20043;-73
2023/09/04 18:16:30;;;;;;;1999.90;999.90;;;;;;;20.84;98.39;102160.72;10523628;28;20560;-73
2023/09/04 18:21:33;;;;;;;1999.90;999.90;;;;;;;20.63;98.35;102152.59;10542087;28;20044;-73
2023/09/04 18:26:36;;;;;;;1999.90;999.90;;;;;;;20.36;99.86;102145.81;10524121;28;20051;-73
2023/09/04 18:31:39;;;;;;;1999.90;999.90;;;;;;;20.24;100.00;102136.97;10541733;28;20048;-72
2023/09/04 18:36:42;;;;;;;1999.90;999.90;;;;;;;20.16;100.00;102142.03;10540910;28;20511;-72
2023/09/04 18:41:46;;;;;;;1999.90;999.90;;;;;;;20.01;100.00;102138.72;10540757;28;20429;-72
2023/09/04 18:46:48;;;;;;;1999.90;999.90;;;;;;;20.07;100.00;102127.59;10522856;28;20451;-72
2023/09/04 18:51:52;;;;;;;1999.90;999.90;;;;;;;19.86;100.00;102120.31;10540204;28;20051;-72
2023/09/04 18:56:55;;;;;;;1999.90;999.90;;;;;;;19.67;100.00;102126.16;10540185;28;20126;-72
2023/09/04 19:01:57;;;;;;;1999.90;999.90;;;;;;;19.54;100.00;102122.72;10556216;22;20059;-69
2023/09/04 19:07:00;;;;;;;1999.90;999.90;;;;;;;19.47;100.00;102119.66;10540448;28;20048;-68
2023/09/04 19:12:03;;;;;;;1999.90;999.90;;;;;;;19.37;100.00;102102.72;10539777;28;20480;-69
2023/09/04 19:17:05;;;;;;;1999.90;999.90;;;;;;;19.46;100.00;102112.66;10538640;28;20568;-69
2023/09/04 19:22:08;;;;;;;1999.90;999.90;;;;;;;19.50;100.00;102107.94;10540179;28;20127;-68
2023/09/04 19:27:10;;;;;;;1999.90;999.90;;;;;;;19.44;100.00;102103.97;10539505;28;20498;-66
2023/09/04 19:32:12;;;;;;;1999.90;999.90;;;;;;;19.38;100.00;102103.56;10539374;28;20408;-66
2023/09/04 19:37:15;;;;;;;1999.90;999.90;;;;;;;19.05;100.00;102105.09;10540072;28;20051;-66
2023/09/04 19:42:17;;;;;;;1999.90;999.90;;;;;;;18.97;100.00;102094.19;10538104;28;20055;-66
2023/09/04 19:47:19;;;;;;;1999.90;999.90;;;;;;;18.96;100.00;102098.63;10538929;28;20135;-66
2023/09/04 19:52:22;;;;;;;1999.90;999.90;;;;;;;18.61;100.00;102091.38;10539598;28;20131;-66
2023/09/04 19:57:24;;;;;;;1999.90;999.90;;;;;;;18.51;100.00;102083.22;10538361;28;20050;-66
2023/09/04 20:02:26;;;;;;;1999.90;999.90;;;;;;;18.54;100.00;102087.44;10538775;28;20058;-66
2023/09/04 20:07:29;;;;;;;1999.90;999.90;;;;;;;18.34;100.00;102084.41;10539205;28;20131;-66
2023/09/04 20:12:32;;;;;;;1999.90;999.90;;;;;;;18.33;100.00;102084.53;10539257;28;20052;-66
2023/09/04 20:17:34;;;;;;;1999.90;999.90;;;;;;;18.18;100.00;102086.44;10539900;28;20404;-66
2023/09/04 20:22:36;;;;;;;1999.90;999.90;;;;;;;18.33;100.00;102081.88;10546973;28;20047;-66
2023/09/04 20:27:39;;;;;;;1999.90;999.90;;;;;;;18.28;100.00;102086.66;10545985;28;20044;-69
2023/09/04 20:32:41;;;;;;;1999.90;999.90;;;;;;;18.53;100.00;102073.34;10546567;28;20055;-69
2023/09/04 20:37:44;;;;;;;1999.90;999.90;;;;;;;18.36;100.00;102074.53;10546163;28;20051;-68
2023/09/04 20:42:46;;;;;;;1999.90;999.90;;;;;;;18.52;100.00;102065.50;10545467;28;20137;-68
2023/09/04 20:47:48;;;;;;;1999.90;999.90;;;;;;;18.67;98.81;102056.44;10545995;28;20043;-69
2023/09/04 20:52:51;;;;;;;1999.90;999.90;;;;;;;18.93;96.38;102049.28;10544669;28;20098;-69
2023/09/04 20:57:53;;;;;;;1999.90;999.90;;;;;;;19.15;92.81;102047.72;10544950;28;20514;-69
2023/09/04 21:02:55;;;;;;;1999.90;999.90;;;;;;;19.17;91.49;102026.38;10544574;28;20415;-69
2023/09/04 23:26:37;;;;;;;1999.90;999.90;;;;;;;17.09;100.00;101968.34;10539490;28;20048;-67
2023/09/04 23:31:47;;;;;;;1999.90;999.90;;;;;;;17.18;100.00;101972.22;10539299;28;20050;-66
2023/09/04 23:37:02;;;;;;;1999.90;999.90;;;;;;;17.31;100.00;101961.63;10538971;28;20087;-66
2023/09/04 23:47:25;;;;;;;1999.90;999.90;;;;;;;17.20;100.00;101965.00;10539723;28;20091;-66
2023/09/04 23:52:28;;;;;;;1999.90;999.90;;;;;;;17.08;100.00;101968.50;10540353;28;20058;-67
2023/09/04 23:57:31;;;;;;;1999.90;999.90;;;;;;;16.96;100.00;101969.28;10547971;28;20083;-66
